Time;durP1;ratioP1;P1;durP2;ratioP2;P2;SDS_P1;SDS_P2;PMS_P1;PMS_P2;Temp;Humidity;BMP_temperature;BMP_pressure;BME280_temperature;BME280_humidity;BME280_pressure;Samples;Min_cycle;Max_cycle;Signal;HPM_P1;HPM_P2
2022/03/27 00:01:14;;;;;;;11.57;6.35;;;9.70;99.90;;;;;;5144649;27;20492;-40
2022/03/27 00:03:40;;;;;;;12.70;7.00;;;9.70;99.90;;;;;;5140977;27;20144;-40
2022/03/27 00:06:06;;;;;;;11.20;6.53;;;9.60;99.90;;;;;;5150377;27;20110;-40
2022/03/27 00:08:31;;;;;;;14.30;6.05;;;9.60;99.90;;;;;;5150038;27;20329;-40
2022/03/27 00:13:41;;;;;;;11.45;6.10;;;9.60;99.90;;;;;;5109660;28;20404;-40
2022/03/27 00:16:08;;;;;;;10.15;6.22;;;9.60;99.90;;;;;;5108749;28;20028;-39
2022/03/27 00:18:33;;;;;;;8.80;6.30;;;9.50;99.90;;;;;;5139278;27;20507;-39
2022/03/27 00:20:59;;;;;;;11.80;6.70;;;9.50;99.90;;;;;;5149940;27;20029;-40
2022/03/27 00:23:24;;;;;;;11.98;6.47;;;9.50;99.90;;;;;;5149995;27;20038;-44
2022/03/27 00:25:50;;;;;;;9.85;6.20;;;9.50;99.90;;;;;;5140932;27;20385;-40
2022/03/27 00:28:16;;;;;;;15.90;7.45;;;9.40;99.90;;;;;;5134373;27;20019;-39
2022/03/27 00:30:42;;;;;;;12.23;7.00;;;9.40;99.90;;;;;;5149507;27;20075;-40
2022/03/27 00:33:08;;;;;;;14.35;7.07;;;9.40;99.90;;;;;;5139704;27;20031;-40
2022/03/27 00:35:33;;;;;;;11.20;6.43;;;9.40;99.90;;;;;;5148470;27;20014;-40
2022/03/27 00:37:58;;;;;;;10.18;7.15;;;9.30;99.90;;;;;;5149913;27;20025;-40
2022/03/27 00:40:25;;;;;;;15.07;6.78;;;9.30;99.90;;;;;;5149212;27;20136;-40
2022/03/27 00:42:50;;;;;;;14.27;7.07;;;9.30;99.90;;;;;;5149933;27;20089;-40
2022/03/27 00:45:16;;;;;;;15.85;7.22;;;9.20;99.90;;;;;;5149382;27;20023;-40
2022/03/27 00:47:43;;;;;;;10.90;6.78;;;9.20;99.90;;;;;;5130932;27;20027;-40
2022/03/27 00:50:09;;;;;;;12.68;6.57;;;9.10;99.90;;;;;;5143306;27;20022;-39
2022/03/27 00:52:34;;;;;;;13.15;7.22;;;9.10;99.90;;;;;;5138154;27;20030;-39
2022/03/27 00:55:00;;;;;;;10.90;6.90;;;9.10;99.90;;;;;;5140666;27;20044;-39
2022/03/27 00:57:26;;;;;;;14.20;7.05;;;9.00;99.90;;;;;;5150480;27;20110;-39
2022/03/27 00:59:52;;;;;;;13.38;7.50;;;8.90;99.90;;;;;;5148623;27;20034;-39
2022/03/27 01:02:18;;;;;;;14.27;6.57;;;8.90;99.90;;;;;;5143477;27;20071;-39
2022/03/27 01:04:45;;;;;;;9.45;6.35;;;8.90;99.90;;;;;;5140557;27;20022;-39
2022/03/27 01:07:20;;;;;;;12.68;6.60;;;8.80;99.90;;;;;;5149592;27;20019;-39
2022/03/27 01:09:46;;;;;;;9.05;6.53;;;8.80;99.90;;;;;;5142144;27;20031;-39
2022/03/27 01:12:18;;;;;;;10.85;6.32;;;8.70;99.90;;;;;;5143413;27;20034;-39
2022/03/27 01:14:44;;;;;;;9.50;6.53;;;8.70;99.90;;;;;;5148785;27;20034;-39
2022/03/27 01:17:14;;;;;;;11.63;7.55;;;8.60;99.90;;;;;;5149165;27;20022;-39
2022/03/27 01:19:43;;;;;;;13.32;7.10;;;8.60;99.90;;;;;;5148135;27;20026;-39
2022/03/27 01:22:09;;;;;;;9.05;6.28;;;8.50;99.90;;;;;;5149348;27;20030;-39
2022/03/27 01:24:34;;;;;;;13.25;6.72;;;8.40;99.90;;;;;;5148663;27;20174;-39
2022/03/27 01:27:00;;;;;;;12.38;7.10;;;8.40;99.90;;;;;;5136774;27;20776;-39
2022/03/27 01:29:26;;;;;;;14.13;7.03;;;8.30;99.90;;;;;;5139933;27;20023;-39
2022/03/27 01:31:53;;;;;;;10.98;6.97;;;8.30;99.90;;;;;;5148877;27;20022;-39
2022/03/27 01:34:19;;;;;;;11.15;7.32;;;8.30;99.90;;;;;;5149088;27;20011;-39
2022/03/27 01:36:44;;;;;;;10.77;7.20;;;8.20;99.90;;;;;;5147279;27;20065;-39
2022/03/27 01:39:12;;;;;;;14.15;7.80;;;8.20;99.90;;;;;;5148314;27;20580;-39
2022/03/27 01:41:39;;;;;;;13.93;7.68;;;8.10;99.90;;;;;;5148994;27;20023;-39
2022/03/27 01:44:10;;;;;;;16.60;7.80;;;8.10;99.90;;;;;;5148428;27;20023;-39
2022/03/27 01:46:37;;;;;;;;;;;8.00;99.90;;;;;;5149242;27;20038;-39
2022/03/27 01:49:04;;;;;;;17.63;7.53;;;8.00;99.90;;;;;;5147818;27;20395;-39
2022/03/27 01:51:31;;;;;;;16.00;7.43;;;7.90;99.90;;;;;;5137383;27;20034;-39
2022/03/27 01:53:57;;;;;;;19.35;8.43;;;7.90;99.90;;;;;;5142371;27;20038;-39
2022/03/27 01:56:23;;;;;;;14.05;8.10;;;7.80;99.90;;;;;;5147419;27;20027;-39
2022/03/27 01:58:50;;;;;;;18.52;9.40;;;7.80;99.90;;;;;;5147945;27;20034;-39
2022/03/27 02:01:19;;;;;;;13.27;8.98;;;7.90;99.90;;;;;;5147457;27;20121;-39
2022/03/27 02:03:46;;;;;;;15.18;8.20;;;7.90;99.90;;;;;;5138007;27;20046;-39
2022/03/27 02:06:12;;;;;;;16.98;8.27;;;7.90;99.90;;;;;;5144589;27;20026;-39
2022/03/27 02:08:38;;;;;;;13.68;8.50;;;7.80;99.90;;;;;;5142922;27;20048;-39
2022/03/27 02:11:03;;;;;;;11.75;8.00;;;7.90;99.90;;;;;;5140123;27;20027;-39
2022/03/27 02:13:29;;;;;;;18.05;8.52;;;7.90;99.90;;;;;;5148365;27;20053;-39
2022/03/27 02:15:57;;;;;;;13.65;9.18;;;7.90;99.90;;;;;;5147179;27;20121;-40
2022/03/27 02:18:28;;;;;;;16.67;10.00;;;7.90;99.90;;;;;;5129808;27;20022;-39
2022/03/27 02:20:54;;;;;;;17.45;9.05;;;7.90;99.90;;;;;;5140712;27;20079;-39
2022/03/27 02:23:23;;;;;;;13.95;8.75;;;7.90;99.90;;;;;;5149930;27;20370;-39
2022/03/27 02:25:50;;;;;;;21.98;10.07;;;7.90;99.90;;;;;;5149618;27;20019;-39
2022/03/27 02:28:16;;;;;;;15.77;9.27;;;7.90;99.90;;;;;;5136748;27;20218;-40
2022/03/27 02:30:42;;;;;;;17.67;9.73;;;7.90;99.90;;;;;;5152136;27;20019;-39
2022/03/27 02:33:08;;;;;;;20.23;9.63;;;7.90;99.90;;;;;;5134640;27;20114;-39
2022/03/27 02:35:34;;;;;;;17.33;9.98;;;7.90;99.90;;;;;;5143372;27;20113;-40
2022/03/27 02:38:04;;;;;;;13.85;9.27;;;7.90;99.90;;;;;;5152270;27;20019;-39
2022/03/27 02:40:31;;;;;;;29.52;10.50;;;7.90;99.90;;;;;;5149575;27;20011;-39
2022/03/27 02:42:59;;;;;;;16.25;9.93;;;7.80;99.90;;;;;;5133349;27;20408;-39
2022/03/27 02:45:26;;;;;;;19.92;11.15;;;7.80;99.90;;;;;;5149601;27;20046;-39
2022/03/27 02:47:51;;;;;;;22.85;11.68;;;7.80;99.90;;;;;;5152021;27;20502;-39
2022/03/27 02:50:17;;;;;;;18.10;11.40;;;7.80;99.90;;;;;;5140451;27;20031;-39
2022/03/27 02:52:42;;;;;;;22.65;11.45;;;7.70;99.90;;;;;;5143354;27;20042;-39
2022/03/27 02:55:08;;;;;;;19.23;11.25;;;7.60;99.90;;;;;;5151564;27;20023;-39
2022/03/27 02:57:34;;;;;;;21.98;12.85;;;7.70;99.90;;;;;;5151483;27;20030;-39
2022/03/27 03:00:00;;;;;;;19.85;12.48;;;7.70;99.90;;;;;;5150958;27;20064;-39
2022/03/27 03:02:25;;;;;;;23.88;12.30;;;7.70;99.90;;;;;;5151413;27;20455;-39
2022/03/27 03:04:52;;;;;;;19.02;12.27;;;7.60;99.90;;;;;;5135838;27;20249;-39
2022/03/27 03:07:18;;;;;;;25.88;12.18;;;7.60;99.90;;;;;;5139411;27;20024;-39
2022/03/27 03:09:44;;;;;;;26.00;11.65;;;7.60;99.90;;;;;;5150746;27;20383;-39
2022/03/27 03:12:10;;;;;;;20.50;12.65;;;7.60;99.90;;;;;;5146523;27;20031;-39
2022/03/27 03:14:36;;;;;;;19.65;11.32;;;7.50;99.90;;;;;;5142465;27;20038;-39
2022/03/27 03:17:03;;;;;;;21.60;12.15;;;7.50;99.90;;;;;;5147886;27;20019;-39
2022/03/27 03:19:30;;;;;;;23.80;12.98;;;7.50;99.90;;;;;;5142464;27;20477;-39
2022/03/27 03:21:55;;;;;;;19.67;12.38;;;7.50;99.90;;;;;;5150754;27;20019;-39
2022/03/27 03:24:21;;;;;;;30.33;12.38;;;7.40;99.90;;;;;;5150727;27;20495;-39
2022/03/27 03:26:48;;;;;;;25.27;12.48;;;7.40;99.90;;;;;;5146224;27;20029;-39
2022/03/27 03:29:14;;;;;;;22.17;12.35;;;7.40;99.90;;;;;;5141510;27;20018;-39
2022/03/27 03:31:39;;;;;;;25.70;12.48;;;7.40;99.90;;;;;;5150852;27;20026;-39
2022/03/27 03:34:25;;;;;;;23.23;13.20;;;7.40;99.90;;;;;;5149346;27;20467;-39
2022/03/27 03:36:50;;;;;;;23.38;12.20;;;7.40;99.90;;;;;;5106538;28;20404;-39
2022/03/27 03:39:16;;;;;;;17.42;11.35;;;7.50;99.90;;;;;;5106152;28;20031;-39
2022/03/27 03:41:42;;;;;;;22.48;12.00;;;7.50;99.90;;;;;;5132415;27;20045;-39
2022/03/27 03:44:07;;;;;;;21.52;11.52;;;7.50;99.90;;;;;;5142270;27;20023;-39
2022/03/27 03:46:33;;;;;;;22.98;12.30;;;7.50;99.90;;;;;;5150486;27;20022;-39
2022/03/27 03:48:59;;;;;;;19.90;10.85;;;7.50;99.90;;;;;;5145490;27;20031;-39
2022/03/27 03:51:24;;;;;;;22.40;11.57;;;7.50;99.90;;;;;;5142030;27;20034;-39
2022/03/27 03:53:50;;;;;;;21.95;12.93;;;7.50;99.90;;;;;;5150720;27;20110;-39
2022/03/27 03:56:15;;;;;;;23.02;11.27;;;7.50;99.90;;;;;;5150937;27;20398;-39
2022/03/27 03:58:41;;;;;;;24.88;12.68;;;7.50;99.90;;;;;;5149686;27;20039;-39
2022/03/27 04:01:07;;;;;;;18.60;11.57;;;7.50;99.90;;;;;;5150279;27;20030;-39
2022/03/27 04:03:32;;;;;;;19.35;11.40;;;7.60;99.90;;;;;;5132606;27;20064;-39
2022/03/27 04:05:59;;;;;;;16.55;10.85;;;7.60;99.90;;;;;;5130285;27;20019;-39
2022/03/27 04:08:24;;;;;;;22.85;11.30;;;7.60;99.90;;;;;;5134026;27;20049;-39
2022/03/27 04:10:50;;;;;;;18.25;10.73;;;7.50;99.90;;;;;;5142766;27;20027;-39
2022/03/27 04:13:15;;;;;;;22.15;12.50;;;7.50;99.90;;;;;;5150292;27;20069;-39
2022/03/27 04:15:41;;;;;;;18.98;11.52;;;7.50;99.90;;;;;;5150041;27;20414;-39
2022/03/27 04:18:07;;;;;;;18.90;11.18;;;7.50;99.90;;;;;;5150146;27;20103;-39
2022/03/27 04:20:34;;;;;;;21.63;11.27;;;7.50;99.90;;;;;;5148316;27;20028;-39
2022/03/27 04:23:00;;;;;;;19.42;11.05;;;7.50;99.90;;;;;;5149733;27;20019;-39
2022/03/27 04:25:26;;;;;;;22.98;11.32;;;7.50;99.90;;;;;;5148564;27;20519;-39
2022/03/27 04:27:52;;;;;;;31.13;12.80;;;7.50;99.90;;;;;;5138932;27;20035;-39
2022/03/27 04:30:17;;;;;;;20.60;12.35;;;7.50;99.90;;;;;;5145954;27;20058;-39
2022/03/27 04:32:43;;;;;;;17.02;11.32;;;7.50;99.90;;;;;;5149619;27;20035;-39
2022/03/27 04:35:10;;;;;;;18.60;11.32;;;7.50;99.90;;;;;;5149891;27;20023;-39
2022/03/27 04:37:39;;;;;;;22.25;11.63;;;7.50;99.90;;;;;;5149015;27;20156;-39
2022/03/27 04:40:05;;;;;;;20.02;11.68;;;7.50;99.90;;;;;;5148861;27;20034;-39
2022/03/27 04:42:30;;;;;;;18.30;11.65;;;7.50;99.90;;;;;;5139864;27;20376;-39
2022/03/27 04:44:56;;;;;;;27.15;11.85;;;7.50;99.90;;;;;;5143336;27;20027;-39
2022/03/27 04:47:22;;;;;;;24.80;12.15;;;7.50;99.90;;;;;;5149310;27;20376;-39
2022/03/27 04:49:47;;;;;;;20.23;11.38;;;7.40;99.90;;;;;;5148994;27;20039;-40
2022/03/27 04:52:13;;;;;;;18.90;10.90;;;7.50;99.90;;;;;;5149463;27;20045;-39
2022/03/27 04:54:39;;;;;;;20.17;10.95;;;7.50;99.90;;;;;;5149202;27;20045;-39
2022/03/27 04:57:05;;;;;;;19.33;11.32;;;7.40;99.90;;;;;;5149554;27;20083;-39
2022/03/27 04:59:31;;;;;;;22.80;11.75;;;7.50;99.90;;;;;;5138727;27;20160;-39
2022/03/27 05:01:58;;;;;;;22.92;11.18;;;7.50;99.90;;;;;;5142738;27;20483;-39
2022/03/27 05:04:24;;;;;;;23.70;12.45;;;7.50;99.90;;;;;;5147872;27;20033;-39
2022/03/27 05:06:49;;;;;;;21.83;10.80;;;7.50;99.90;;;;;;5149243;27;20487;-39
2022/03/27 05:09:15;;;;;;;16.63;10.18;;;7.50;99.90;;;;;;5144820;27;20482;-39
2022/03/27 05:11:40;;;;;;;17.58;10.23;;;7.50;99.90;;;;;;5132136;27;20029;-39
2022/03/27 05:14:06;;;;;;;21.88;11.27;;;7.40;99.90;;;;;;5149010;27;20096;-40
2022/03/27 05:16:32;;;;;;;21.85;11.40;;;7.50;99.90;;;;;;5125042;27;20102;-39
2022/03/27 05:18:57;;;;;;;19.25;11.13;;;7.50;99.90;;;;;;5118471;27;20027;-39
2022/03/27 05:21:25;;;;;;;19.85;11.52;;;7.50;99.90;;;;;;5120912;27;20360;-39
2022/03/27 05:23:51;;;;;;;18.25;10.02;;;7.50;99.90;;;;;;5120817;27;20015;-38
2022/03/27 05:26:17;;;;;;;17.35;10.45;;;7.50;99.90;;;;;;5118411;27;20012;-39
2022/03/27 05:28:43;;;;;;;21.98;11.02;;;7.40;99.90;;;;;;5117519;28;20030;-39
2022/03/27 05:31:09;;;;;;;16.25;10.38;;;7.50;99.90;;;;;;5117414;27;20016;-39
2022/03/27 05:33:38;;;;;;;21.83;11.60;;;7.50;99.90;;;;;;5117674;27;20023;-39
2022/03/27 05:36:05;;;;;;;20.50;11.15;;;7.50;99.90;;;;;;5115464;27;20581;-39
2022/03/27 05:38:31;;;;;;;20.70;10.90;;;7.50;99.90;;;;;;5115318;27;20456;-38
2022/03/27 05:40:56;;;;;;;23.52;10.77;;;7.50;99.90;;;;;;5115819;28;20055;-44
2022/03/27 05:43:22;;;;;;;19.35;10.55;;;7.50;99.90;;;;;;5116600;28;20042;-38
2022/03/27 05:45:47;;;;;;;15.93;9.65;;;7.50;99.90;;;;;;5117502;28;20015;-38
2022/03/27 05:48:14;;;;;;;21.45;11.63;;;7.50;99.90;;;;;;5115493;28;20260;-39
2022/03/27 05:50:39;;;;;;;19.27;10.57;;;7.50;99.90;;;;;;5117858;27;20462;-38
2022/03/27 05:53:05;;;;;;;18.83;10.93;;;7.60;99.90;;;;;;5117966;27;20098;-39
2022/03/27 05:55:31;;;;;;;20.17;11.38;;;7.60;99.90;;;;;;5118016;28;20536;-38
2022/03/27 05:57:56;;;;;;;22.70;12.20;;;7.70;99.90;;;;;;5116777;27;20031;-40
2022/03/27 06:00:23;;;;;;;18.83;10.75;;;7.70;99.90;;;;;;5122003;27;20411;-39
2022/03/27 06:02:57;;;;;;;20.63;11.48;;;7.60;99.90;;;;;;5121288;27;20445;-40
2022/03/27 06:05:23;;;;;;;23.10;11.27;;;7.70;99.90;;;;;;5120502;27;20024;-39
2022/03/27 06:07:51;;;;;;;18.17;11.30;;;7.60;99.90;;;;;;5118581;27;20564;-40
2022/03/27 06:10:21;;;;;;;22.00;11.63;;;7.60;99.90;;;;;;5124504;27;20025;-39
2022/03/27 06:12:46;;;;;;;22.77;11.67;;;7.60;99.90;;;;;;5123166;27;20054;-39
2022/03/27 06:15:13;;;;;;;20.88;11.15;;;7.60;99.90;;;;;;5118827;27;20050;-39
2022/03/27 06:17:44;;;;;;;19.45;11.25;;;7.50;99.90;;;;;;5130903;27;20050;-40
2022/03/27 06:20:12;;;;;;;20.15;11.48;;;7.50;99.90;;;;;;5118047;27;20024;-40
2022/03/27 06:22:39;;;;;;;18.88;11.15;;;7.50;99.90;;;;;;5122237;27;20023;-40
2022/03/27 06:25:06;;;;;;;20.83;12.00;;;7.40;99.90;;;;;;5123961;27;20563;-39
2022/03/27 06:27:32;;;;;;;25.52;12.20;;;7.40;99.90;;;;;;5121342;27;20023;-39
2022/03/27 06:29:58;;;;;;;25.05;11.77;;;7.50;99.90;;;;;;5121043;27;20076;-38
2022/03/27 06:32:26;;;;;;;24.05;13.00;;;7.50;99.90;;;;;;5127140;27;20030;-39
2022/03/27 06:34:57;;;;;;;22.77;12.57;;;7.50;99.90;;;;;;5131947;27;20085;-39
2022/03/27 06:37:27;;;;;;;20.48;12.00;;;7.60;99.90;;;;;;5131687;27;20038;-39
2022/03/27 06:39:56;;;;;;;20.88;12.82;;;7.60;99.90;;;;;;5123354;27;20019;-39
2022/03/27 06:42:24;;;;;;;22.33;11.98;;;7.60;99.90;;;;;;5117728;27;20065;-39
2022/03/27 06:44:51;;;;;;;25.20;13.45;;;7.60;99.90;;;;;;5126615;27;20027;-39
2022/03/27 06:47:17;;;;;;;20.92;12.73;;;7.50;99.90;;;;;;5121127;27;20372;-38
2022/03/27 06:49:43;;;;;;;25.27;13.70;;;7.60;99.90;;;;;;5122091;27;20053;-38
2022/03/27 06:52:09;;;;;;;25.33;13.43;;;7.60;99.90;;;;;;5126356;27;20047;-39
2022/03/27 06:54:35;;;;;;;22.33;12.05;;;7.60;99.90;;;;;;5118509;27;20028;-39
2022/03/27 06:57:00;;;;;;;20.40;11.82;;;7.60;99.90;;;;;;5118736;27;20049;-38
2022/03/27 06:59:26;;;;;;;31.88;13.80;;;7.60;99.90;;;;;;5124701;27;20048;-39
2022/03/27 07:04:35;;;;;;;28.15;14.32;;;7.70;99.90;;;;;;5131188;27;20034;-39
2022/03/27 07:07:01;;;;;;;21.25;12.55;;;7.90;99.90;;;;;;5130804;27;20048;-39
2022/03/27 07:09:26;;;;;;;30.40;13.02;;;8.00;99.90;;;;;;5130982;27;20033;-39
2022/03/27 07:11:52;;;;;;;26.58;12.45;;;8.00;99.90;;;;;;5144474;27;20094;-39
2022/03/27 07:14:18;;;;;;;23.48;13.55;;;8.00;99.90;;;;;;5151864;27;20450;-39
2022/03/27 07:16:44;;;;;;;25.65;13.45;;;8.00;99.90;;;;;;5149048;27;20018;-39
2022/03/27 07:19:10;;;;;;;21.35;12.45;;;8.10;99.90;;;;;;5134648;27;20046;-38
2022/03/27 07:21:40;;;;;;;24.83;13.20;;;8.20;99.90;;;;;;5150730;27;20046;-39
2022/03/27 07:24:06;;;;;;;23.80;13.57;;;8.30;99.90;;;;;;5151530;27;20026;-39
2022/03/27 07:26:31;;;;;;;29.83;15.20;;;8.50;99.90;;;;;;5145421;27;20376;-39
2022/03/27 07:28:57;;;;;;;27.35;13.05;;;8.60;99.90;;;;;;5142227;27;20102;-38
2022/03/27 07:31:23;;;;;;;21.65;13.43;;;8.70;99.90;;;;;;5151211;27;20030;-39
2022/03/27 07:33:49;;;;;;;20.83;12.75;;;8.90;99.90;;;;;;5150863;27;20503;-39
2022/03/27 07:36:14;;;;;;;20.92;12.70;;;9.10;99.90;;;;;;5151274;27;20055;-39
2022/03/27 07:38:40;;;;;;;26.92;14.07;;;9.20;99.90;;;;;;5150422;27;20042;-39
2022/03/27 07:41:05;;;;;;;25.80;13.00;;;9.40;99.90;;;;;;5150905;27;20026;-39
2022/03/27 07:43:32;;;;;;;20.90;12.98;;;9.40;99.90;;;;;;5150598;27;20031;-39
2022/03/27 07:45:58;;;;;;;24.83;12.88;;;9.60;99.90;;;;;;5138023;27;20029;-39
2022/03/27 07:48:23;;;;;;;23.48;12.82;;;9.90;99.90;;;;;;5142196;27;20042;-39
2022/03/27 07:50:54;;;;;;;25.40;12.93;;;9.90;99.90;;;;;;5131593;27;20039;-39
2022/03/27 07:53:20;;;;;;;23.33;12.32;;;10.00;99.90;;;;;;5109500;28;20477;-39
2022/03/27 07:55:46;;;;;;;21.38;12.93;;;9.70;99.90;;;;;;5109193;28;20036;-39
2022/03/27 07:58:11;;;;;;;21.63;14.05;;;9.80;99.90;;;;;;5108481;28;20072;-39
2022/03/27 08:00:37;;;;;;;28.83;13.30;;;10.00;99.90;;;;;;5114173;27;20149;-39
2022/03/27 08:03:03;;;;;;;26.67;15.50;;;10.20;99.90;;;;;;5141602;27;20026;-39
2022/03/27 08:05:28;;;;;;;25.00;15.32;;;10.30;99.90;;;;;;5149171;27;20113;-39
2022/03/27 08:07:54;;;;;;;23.60;14.82;;;10.40;99.90;;;;;;5142694;27;20218;-39
2022/03/27 08:10:19;;;;;;;32.10;16.40;;;10.50;99.90;;;;;;5147010;27;20023;-39
2022/03/27 08:12:46;;;;;;;27.48;16.40;;;10.50;99.90;;;;;;5139279;27;20027;-39
2022/03/27 08:15:12;;;;;;;28.73;15.30;;;10.70;99.90;;;;;;5145839;27;20391;-39
2022/03/27 08:17:38;;;;;;;24.05;13.32;;;10.90;99.90;;;;;;5146808;27;20027;-39
2022/03/27 08:20:04;;;;;;;27.20;13.25;;;11.20;99.90;;;;;;5140363;27;20502;-40
2022/03/27 08:22:30;;;;;;;19.42;12.20;;;11.40;99.90;;;;;;5149631;27;20018;-40
2022/03/27 08:24:56;;;;;;;18.08;12.60;;;12.00;99.90;;;;;;5149779;27;20070;-40
2022/03/27 08:27:21;;;;;;;21.08;13.20;;;12.50;99.90;;;;;;5142766;27;20027;-40
2022/03/27 08:29:48;;;;;;;19.88;14.05;;;12.60;99.90;;;;;;5141579;27;20104;-41
2022/03/27 08:32:15;;;;;;;22.30;15.02;;;12.60;99.90;;;;;;5148228;27;20034;-40
2022/03/27 08:34:47;;;;;;;20.92;15.07;;;12.70;99.90;;;;;;5122104;27;20155;-39
2022/03/27 08:37:14;;;;;;;25.90;15.60;;;12.70;99.90;;;;;;5116916;27;20403;-39
2022/03/27 08:39:41;;;;;;;26.27;14.68;;;12.60;99.90;;;;;;5074849;28;20074;-39
2022/03/27 08:42:07;;;;;;;21.98;15.20;;;12.60;99.90;;;;;;5071881;28;20449;-39
2022/03/27 08:44:35;;;;;;;30.13;17.65;;;12.50;99.90;;;;;;5112512;27;20036;-39
2022/03/27 08:47:03;;;;;;;23.13;14.85;;;12.60;99.90;;;;;;5112025;27;20491;-39
2022/03/27 08:49:39;;;;;;;20.92;13.73;;;12.60;99.90;;;;;;5107451;28;20024;-39
2022/03/27 08:52:17;;;;;;;24.50;15.57;;;12.80;99.90;;;;;;5106709;28;20023;-39
2022/03/27 08:54:49;;;;;;;20.88;14.20;;;13.10;99.90;;;;;;5127188;27;20033;-40
2022/03/27 08:57:51;;;;;;;23.13;14.38;;;13.20;99.90;;;;;;5144003;27;20233;-40
2022/03/27 09:00:20;;;;;;;25.05;13.88;;;13.60;99.90;;;;;;5147349;27;20415;-40
2022/03/27 09:02:46;;;;;;;24.45;14.30;;;14.00;99.90;;;;;;5147898;27;20025;-40
2022/03/27 09:05:12;;;;;;;20.02;14.20;;;14.10;99.90;;;;;;5148073;27;20019;-40
2022/03/27 09:07:37;;;;;;;27.33;16.65;;;14.60;99.90;;;;;;5148048;27;20142;-40
2022/03/27 09:10:06;;;;;;;18.92;13.50;;;14.70;99.90;;;;;;5135624;27;20118;-39
2022/03/27 09:12:33;;;;;;;25.25;14.23;;;14.60;99.90;;;;;;5141502;27;20027;-39
2022/03/27 09:14:59;;;;;;;25.23;14.70;;;14.40;99.90;;;;;;5139066;27;20026;-39
2022/03/27 09:17:24;;;;;;;21.02;14.82;;;14.60;99.90;;;;;;5148964;27;20033;-39
2022/03/27 09:19:51;;;;;;;26.60;16.30;;;15.00;99.90;;;;;;5130719;27;20023;-39
2022/03/27 09:22:16;;;;;;;23.38;15.15;;;15.30;99.90;;;;;;5145954;27;20130;-40
2022/03/27 09:24:46;;;;;;;22.63;14.40;;;15.70;98.90;;;;;;5150540;27;20080;-40
2022/03/27 09:27:12;;;;;;;25.27;16.05;;;16.30;99.10;;;;;;5143426;27;20269;-40
2022/03/27 09:30:00;;;;;;;23.10;15.32;;;17.80;96.40;;;;;;5124391;27;20034;-39
2022/03/27 09:32:27;;;;;;;19.52;12.75;;;19.40;91.40;;;;;;5128757;27;20062;-39
2022/03/27 09:35:11;;;;;;;19.52;14.52;;;21.40;83.40;;;;;;5134342;27;20031;-40
2022/03/27 09:37:42;;;;;;;17.05;13.05;;;22.30;73.10;;;;;;5114498;27;20039;-40
2022/03/27 09:40:10;;;;;;;15.85;11.75;;;23.10;68.50;;;;;;5106968;28;20018;-41
2022/03/27 09:42:37;;;;;;;18.13;12.90;;;24.00;64.10;;;;;;5107110;28;20026;-38
2022/03/27 09:45:25;;;;;;;22.25;14.68;;;24.50;61.00;;;;;;5107639;28;20027;-40
2022/03/27 09:47:55;;;;;;;16.20;13.93;;;23.30;60.30;;;;;;5116935;27;20019;-40
2022/03/27 09:50:40;;;;;;;14.82;12.52;;;22.70;63.80;;;;;;5139365;27;20484;-40
2022/03/27 09:53:23;;;;;;;16.02;13.05;;;23.50;62.60;;;;;;5148995;27;20035;-40
2022/03/27 09:55:58;;;;;;;14.57;11.93;;;24.10;59.30;;;;;;5134981;27;20563;-40
2022/03/27 09:58:38;;;;;;;16.48;11.52;;;24.40;59.40;;;;;;5146256;27;20039;-40
2022/03/27 10:01:14;;;;;;;15.80;11.73;;;24.90;57.90;;;;;;5149021;27;20110;-38
2022/03/27 10:04:03;;;;;;;14.68;12.82;;;25.10;56.30;;;;;;5132857;27;20480;-38
2022/03/27 10:06:37;;;;;;;15.97;14.27;;;26.00;55.50;;;;;;5147110;27;20491;-38
2022/03/27 10:09:05;;;;;;;14.77;11.60;;;26.30;54.30;;;;;;5147998;27;20440;-38
2022/03/27 10:11:32;;;;;;;16.58;12.82;;;26.50;54.50;;;;;;5148631;27;20027;-38
2022/03/27 10:13:58;;;;;;;15.57;12.68;;;26.00;54.30;;;;;;5131125;27;20536;-38
2022/03/27 10:16:30;;;;;;;17.05;13.20;;;26.70;54.00;;;;;;5146266;27;20102;-38
2022/03/27 10:19:05;;;;;;;14.32;12.85;;;26.50;51.70;;;;;;5131576;27;20669;-38
2022/03/27 10:21:32;;;;;;;18.02;14.13;;;27.50;50.90;;;;;;5147541;27;20038;-38
2022/03/27 10:24:11;;;;;;;13.80;11.82;;;27.20;50.50;;;;;;5137553;27;20201;-39
2022/03/27 10:26:37;;;;;;;14.00;11.05;;;26.50;51.80;;;;;;5147867;27;20022;-39
2022/03/27 10:29:05;;;;;;;15.15;12.63;;;26.70;52.50;;;;;;5142301;27;20087;-39
2022/03/27 10:31:30;;;;;;;13.15;11.23;;;27.40;49.80;;;;;;5120894;27;20386;-39
2022/03/27 10:33:58;;;;;;;12.32;10.82;;;27.00;50.90;;;;;;5117460;27;20039;-39
2022/03/27 10:36:50;;;;;;;17.67;12.70;;;26.70;51.30;;;;;;5119953;27;20107;-39
2022/03/27 10:39:42;;;;;;;17.15;13.13;;;26.30;51.30;;;;;;5116427;27;20035;-39
2022/03/27 10:42:34;;;;;;;14.60;12.60;;;26.30;50.90;;;;;;5115993;28;20071;-40
2022/03/27 10:45:16;;;;;;;15.40;13.23;;;26.60;51.30;;;;;;5112253;27;20072;-40
2022/03/27 10:47:42;;;;;;;15.57;11.63;;;27.00;51.40;;;;;;5118835;27;20023;-39
2022/03/27 10:50:10;;;;;;;13.32;11.93;;;26.90;49.80;;;;;;5118655;27;20031;-39
2022/03/27 10:52:57;;;;;;;15.73;11.45;;;26.80;50.90;;;;;;5115337;27;20074;-39
2022/03/27 10:55:35;;;;;;;16.63;11.68;;;27.30;50.70;;;;;;5119714;27;20027;-39
2022/03/27 10:58:29;;;;;;;13.55;10.73;;;28.00;49.30;;;;;;5118651;27;20028;-40
2022/03/27 11:00:55;;;;;;;14.73;10.43;;;28.20;50.30;;;;;;5121415;27;20054;-39
2022/03/27 11:03:47;;;;;;;14.23;11.85;;;28.20;48.80;;;;;;5123397;27;20023;-39
2022/03/27 11:06:26;;;;;;;13.80;11.68;;;27.90;48.70;;;;;;5126368;27;20019;-40
2022/03/27 11:08:53;;;;;;;12.85;10.48;;;27.60;48.20;;;;;;5112531;27;20024;-40
2022/03/27 11:11:34;;;;;;;15.82;12.55;;;27.00;48.10;;;;;;5110451;27;20035;-40
2022/03/27 11:14:00;;;;;;;14.35;10.90;;;25.90;49.50;;;;;;5122109;27;20039;-39
2022/03/27 11:16:26;;;;;;;13.70;11.50;;;25.90;51.50;;;;;;5113599;27;20517;-40
2022/03/27 11:18:51;;;;;;;14.07;10.75;;;26.50;51.20;;;;;;5110764;27;20616;-40
2022/03/27 11:21:26;;;;;;;14.13;11.70;;;27.00;49.70;;;;;;5117133;27;20551;-41
2022/03/27 11:23:52;;;;;;;13.93;10.98;;;27.20;48.80;;;;;;5117089;27;20050;-42
2022/03/27 11:26:21;;;;;;;12.55;10.43;;;27.20;49.30;;;;;;5123302;27;20389;-41
2022/03/27 11:28:47;;;;;;;16.52;14.45;;;26.50;50.00;;;;;;5114883;27;20023;-46
2022/03/27 11:31:13;;;;;;;17.38;14.68;;;27.10;48.80;;;;;;5117244;27;20492;-46
2022/03/27 11:33:38;;;;;;;16.50;14.05;;;26.80;46.80;;;;;;5118858;27;20051;-48
2022/03/27 11:36:07;;;;;;;14.63;11.48;;;25.30;49.50;;;;;;5121004;27;20131;-46
2022/03/27 11:38:51;;;;;;;12.82;11.27;;;24.80;52.80;;;;;;5119045;27;20415;-44
2022/03/27 11:41:42;;;;;;;15.10;12.20;;;25.30;53.20;;;;;;5120009;27;20430;-47
2022/03/27 11:44:22;;;;;;;13.57;10.75;;;25.30;51.60;;;;;;5119455;27;20046;-46
2022/03/27 11:46:56;;;;;;;19.70;12.90;;;25.70;53.50;;;;;;5122083;27;20016;-45
2022/03/27 11:49:35;;;;;;;12.90;11.38;;;25.50;51.60;;;;;;5125674;27;20031;-46
2022/03/27 11:52:15;;;;;;;15.52;12.35;;;25.10;51.80;;;;;;5122192;27;20440;-46
2022/03/27 11:54:41;;;;;;;17.98;12.57;;;24.40;53.20;;;;;;5122142;27;20040;-44
2022/03/27 11:57:08;;;;;;;17.80;13.23;;;24.60;53.90;;;;;;5122433;27;20026;-46
2022/03/27 11:59:48;;;;;;;16.40;12.05;;;25.00;52.30;;;;;;5120615;27;20069;-45
2022/03/27 12:02:14;;;;;;;;;;;25.90;51.50;;;;;;5121154;27;20047;-46
2022/03/27 12:04:51;;;;;;;18.77;12.13;;;24.70;53.20;;;;;;5123307;27;19907;-47
2022/03/27 12:07:17;;;;;;;15.32;11.40;;;24.40;55.20;;;;;;5123678;27;20023;-45
2022/03/27 12:09:42;;;;;;;17.23;13.15;;;23.70;54.90;;;;;;5116490;27;20551;-45
2022/03/27 12:12:10;;;;;;;19.73;13.60;;;22.80;56.10;;;;;;5128947;27;20047;-45
2022/03/27 12:15:02;;;;;;;22.70;15.00;;;21.90;59.40;;;;;;5128825;27;20372;-45
2022/03/27 12:17:31;;;;;;;19.58;14.40;;;22.20;59.10;;;;;;5128726;27;20031;-45
2022/03/27 12:19:58;;;;;;;19.90;13.88;;;21.60;58.50;;;;;;5131135;27;20015;-45
2022/03/27 12:22:34;;;;;;;20.75;14.05;;;20.80;61.00;;;;;;5128684;27;20019;-47
2022/03/27 12:25:00;;;;;;;17.40;12.95;;;20.10;62.10;;;;;;5135317;27;20030;-45
2022/03/27 12:30:10;;;;;;;18.50;13.75;;;19.10;67.10;;;;;;5141751;27;20439;-45
2022/03/27 12:32:36;;;;;;;18.50;13.95;;;19.90;66.50;;;;;;5150925;27;20027;-45
2022/03/27 12:35:02;;;;;;;23.27;14.48;;;20.60;64.40;;;;;;5135329;27;20030;-47
2022/03/27 12:37:31;;;;;;;19.17;13.93;;;21.00;63.50;;;;;;5148798;27;20446;-45
2022/03/27 12:39:56;;;;;;;17.83;13.05;;;20.50;62.80;;;;;;5150630;27;20015;-45
2022/03/27 12:42:40;;;;;;;16.27;12.88;;;19.80;64.40;;;;;;5150875;27;20494;-45
2022/03/27 12:45:26;;;;;;;23.77;14.50;;;19.20;65.70;;;;;;5150846;27;20011;-45
2022/03/27 12:47:52;;;;;;;16.23;11.98;;;18.60;67.80;;;;;;5150754;27;20387;-45
2022/03/27 12:50:33;;;;;;;16.15;11.43;;;17.90;69.70;;;;;;5149830;27;20027;-47